Marianne Danica — OWWO2 — position and weather

sailwx.info

Track history (hours):
 
Tides and Currents Weather Stations Pressure Air Temp Water Temp Dewpoint Dewpoint Depression Visibility Wind Speed Wind Dir Waves Ship Positions

Marianne Danica

Last reported at 2014-Nov-27 00:11 UTC. Time now 2014-Nov-27 09:33 UTC.
Position N 59°37' E 023°18'.

Length 71 m; draft 3.4 m.

Type: Ship (hazmat cat A). MMSI: 219544000.

Date/timePositionNaut miles runAvg speedWind from/ knotsBaromVisibWave heightAir tempDewpointWater temp
2014-Nov-27 00:11N 59°37' E 023°18'710.5
2014-Nov-26 23:33N 59°39' E 023°31'1310.6
2014-Nov-26 22:21N 59°42' E 023°55'8410.5
2014-Nov-26 14:20N 60°01' E 026°38'810.3
2014-Nov-26 13:33N 60°00' E 026°54'  
2014-Nov-22 19:33N 59°59' E 026°41'8 7.8
2014-Nov-22 18:33N 59°58' E 026°26'12 7.9
2014-Nov-22 17:04N 59°54' E 026°04'33 7.2
2014-Nov-22 12:33N 59°47' E 025°00'9 7.1
2014-Nov-22 11:14N 59°45' E 024°42'5 7.0
2014-Nov-22 10:33N 59°45' E 024°33'26 7.5
2014-Nov-22 07:06N 59°36' E 023°44'300 7.2
2014-Nov-20 13:07N 55°12' E 019°17'5 9.3
2014-Nov-20 12:33N 55°07' E 019°14'9 9.1
2014-Nov-20 11:33N 54°59' E 019°09'9 9.0
2014-Nov-20 10:33N 54°50' E 019°05'9 9.2
2014-Nov-20 09:33N 54°41' E 018°59'10 9.6
2014-Nov-20 08:33N 54°33' E 018°51'9 8.8
2014-Nov-20 07:33N 54°31' E 018°36'2 1.5
2014-Nov-20 06:31N 54°32' E 018°33'0 0.0
2014-Nov-20 05:31N 54°32' E 018°33'0 0.0
2014-Nov-20 04:31N 54°32' E 018°33'0 0.0
2014-Nov-20 03:31N 54°32' E 018°33'0 0.0
2014-Nov-20 02:31N 54°32' E 018°33'0 0.0
2014-Nov-20 01:31N 54°32' E 018°33'0 0.0
2014-Nov-20 00:31N 54°32' E 018°33'0 0.0
2014-Nov-19 23:31N 54°32' E 018°33'0 0.0
2014-Nov-19 22:31N 54°32' E 018°33'0 0.0
2014-Nov-19 21:31N 54°32' E 018°33'0 0.0
2014-Nov-19 20:31N 54°32' E 018°33'0 0.0
2014-Nov-19 19:31N 54°32' E 018°33'0 0.0
2014-Nov-19 18:31N 54°32' E 018°33'0 0.0
2014-Nov-19 17:31N 54°32' E 018°33'0 0.0
2014-Nov-19 16:31N 54°32' E 018°33'0 0.0
2014-Nov-19 15:31N 54°32' E 018°33'0 0.0
2014-Nov-19 14:31N 54°32' E 018°33'0 0.0
2014-Nov-19 13:31N 54°32' E 018°33'0 0.0
2014-Nov-19 12:31N 54°32' E 018°33'0 0.0
2014-Nov-19 11:31N 54°32' E 018°33'0 0.0
2014-Nov-19 10:34N 54°32' E 018°33'0 0.0
2014-Nov-19 09:33N 54°32' E 018°33'0 0.0
2014-Nov-19 08:33N 54°32' E 018°33'0 0.0
2014-Nov-19 07:33N 54°32' E 018°33'0 0.0
2014-Nov-19 06:33N 54°32' E 018°33'0 0.0
2014-Nov-19 05:33N 54°32' E 018°33'0 0.0
2014-Nov-19 04:33N 54°32' E 018°33'0 0.0
2014-Nov-19 03:33N 54°32' E 018°33'0 0.0
2014-Nov-19 02:33N 54°32' E 018°33'0 0.0
2014-Nov-19 01:33N 54°32' E 018°33'0 0.0
2014-Nov-19 00:32N 54°32' E 018°33'0 0.0
2014-Nov-18 23:32N 54°32' E 018°33'0 0.0
2014-Nov-18 22:32N 54°32' E 018°33'0 0.0
2014-Nov-18 21:32N 54°32' E 018°33'0 0.0
2014-Nov-18 20:32N 54°32' E 018°33'0 0.0
2014-Nov-18 19:32N 54°32' E 018°33'0 0.0
2014-Nov-18 18:32N 54°32' E 018°33'0 0.0
2014-Nov-18 17:32N 54°32' E 018°33'0 0.0
2014-Nov-18 16:32N 54°32' E 018°33'0 0.0
2014-Nov-18 15:32N 54°32' E 018°33'0 0.0
2014-Nov-18 14:32N 54°32' E 018°33'0 0.0
2014-Nov-18 13:32N 54°32' E 018°33'0 0.0
2014-Nov-18 12:32N 54°32' E 018°33'0 0.0
2014-Nov-18 11:32N 54°32' E 018°33'3 2.9
2014-Nov-18 10:32N 54°29' E 018°33'3 2.9
2014-Nov-18 09:32N 54°32' E 018°33'0 0.0
2014-Nov-18 08:32N 54°32' E 018°33'0 0.0
2014-Nov-18 07:32N 54°32' E 018°33'0 0.0
2014-Nov-18 06:32N 54°32' E 018°33'0 0.0
2014-Nov-18 05:32N 54°32' E 018°33'0 0.0
2014-Nov-18 04:32N 54°32' E 018°33'0 0.0
2014-Nov-18 03:32N 54°32' E 018°33'0 0.0
2014-Nov-18 02:32N 54°32' E 018°33'0 0.0
2014-Nov-18 01:32N 54°32' E 018°33'0 0.0
2014-Nov-18 00:32N 54°32' E 018°33'0 0.0
2014-Nov-17 23:32N 54°32' E 018°33'0 0.0
2014-Nov-17 22:32N 54°32' E 018°33'0 0.0
2014-Nov-17 21:31N 54°32' E 018°33'0 0.0
2014-Nov-17 20:31N 54°32' E 018°33'0 0.0
2014-Nov-17 19:31N 54°32' E 018°33'0 0.0
2014-Nov-17 18:31N 54°32' E 018°33'0 0.0
2014-Nov-17 17:31N 54°32' E 018°33'0 0.0
2014-Nov-17 16:31N 54°32' E 018°33'0 0.0
2014-Nov-17 15:31N 54°32' E 018°33'1 0.9
2014-Nov-17 14:31N 54°31' E 018°33'1 0.9
2014-Nov-17 13:31N 54°32' E 018°33'0 0.0
2014-Nov-17 12:31N 54°32' E 018°33'0 0.0
2014-Nov-17 11:31N 54°32' E 018°33'0 0.0
2014-Nov-17 10:31N 54°32' E 018°33'0 0.0
2014-Nov-17 09:31N 54°32' E 018°33'0 0.0
2014-Nov-17 08:31N 54°32' E 018°33'0 0.0
2014-Nov-17 07:31N 54°32' E 018°33'0 0.0
2014-Nov-17 06:31N 54°32' E 018°33'0 0.0
2014-Nov-17 05:31N 54°32' E 018°33'0 0.0
2014-Nov-17 04:31N 54°32' E 018°33'0 0.0
2014-Nov-17 03:31N 54°32' E 018°33'0 0.0
2014-Nov-17 02:31N 54°32' E 018°33'0 0.0
2014-Nov-17 01:31N 54°32' E 018°33'0 0.0
2014-Nov-17 00:28N 54°32' E 018°33'  
Track history (hours):
 
Tides and Currents Weather Stations Pressure Air Temp Water Temp Dewpoint Dewpoint Depression Visibility Wind Speed Wind Dir Waves Ship Positions

Marianne Danica

Last reported at 2014-Nov-27 00:11 UTC. Time now 2014-Nov-27 09:33 UTC.
Position N 59°37' E 023°18'.

Length 71 m; draft 3.4 m.

Type: Ship (hazmat cat A). MMSI: 219544000.

Date/timePositionNaut miles runAvg speedWind from/ knotsBaromVisibWave heightAir tempDewpointWater temp
2014-Nov-27 00:11N 59°37' E 023°18'710.5
2014-Nov-26 23:33N 59°39' E 023°31'1310.6
2014-Nov-26 22:21N 59°42' E 023°55'8410.5
2014-Nov-26 14:20N 60°01' E 026°38'810.3
2014-Nov-26 13:33N 60°00' E 026°54'  
2014-Nov-22 19:33N 59°59' E 026°41'8 7.8
2014-Nov-22 18:33N 59°58' E 026°26'12 7.9
2014-Nov-22 17:04N 59°54' E 026°04'33 7.2
2014-Nov-22 12:33N 59°47' E 025°00'9 7.1
2014-Nov-22 11:14N 59°45' E 024°42'5 7.0
2014-Nov-22 10:33N 59°45' E 024°33'26 7.5
2014-Nov-22 07:06N 59°36' E 023°44'300 7.2
2014-Nov-20 13:07N 55°12' E 019°17'5 9.3
2014-Nov-20 12:33N 55°07' E 019°14'9 9.1
2014-Nov-20 11:33N 54°59' E 019°09'9 9.0
2014-Nov-20 10:33N 54°50' E 019°05'9 9.2
2014-Nov-20 09:33N 54°41' E 018°59'10 9.6
2014-Nov-20 08:33N 54°33' E 018°51'9 8.8
2014-Nov-20 07:33N 54°31' E 018°36'2 1.5
2014-Nov-20 06:31N 54°32' E 018°33'0 0.0
2014-Nov-20 05:31N 54°32' E 018°33'0 0.0
2014-Nov-20 04:31N 54°32' E 018°33'0 0.0
2014-Nov-20 03:31N 54°32' E 018°33'0 0.0
2014-Nov-20 02:31N 54°32' E 018°33'0 0.0
2014-Nov-20 01:31N 54°32' E 018°33'0 0.0
2014-Nov-20 00:31N 54°32' E 018°33'0 0.0
2014-Nov-19 23:31N 54°32' E 018°33'0 0.0
2014-Nov-19 22:31N 54°32' E 018°33'0 0.0
2014-Nov-19 21:31N 54°32' E 018°33'0 0.0
2014-Nov-19 20:31N 54°32' E 018°33'0 0.0
2014-Nov-19 19:31N 54°32' E 018°33'0 0.0
2014-Nov-19 18:31N 54°32' E 018°33'0 0.0
2014-Nov-19 17:31N 54°32' E 018°33'0 0.0
2014-Nov-19 16:31N 54°32' E 018°33'0 0.0
2014-Nov-19 15:31N 54°32' E 018°33'0 0.0
2014-Nov-19 14:31N 54°32' E 018°33'0 0.0
2014-Nov-19 13:31N 54°32' E 018°33'0 0.0
2014-Nov-19 12:31N 54°32' E 018°33'0 0.0
2014-Nov-19 11:31N 54°32' E 018°33'0 0.0
2014-Nov-19 10:34N 54°32' E 018°33'0 0.0
2014-Nov-19 09:33N 54°32' E 018°33'0 0.0
2014-Nov-19 08:33N 54°32' E 018°33'0 0.0
2014-Nov-19 07:33N 54°32' E 018°33'0 0.0
2014-Nov-19 06:33N 54°32' E 018°33'0 0.0
2014-Nov-19 05:33N 54°32' E 018°33'0 0.0
2014-Nov-19 04:33N 54°32' E 018°33'0 0.0
2014-Nov-19 03:33N 54°32' E 018°33'0 0.0
2014-Nov-19 02:33N 54°32' E 018°33'0 0.0
2014-Nov-19 01:33N 54°32' E 018°33'0 0.0
2014-Nov-19 00:32N 54°32' E 018°33'0 0.0
2014-Nov-18 23:32N 54°32' E 018°33'0 0.0
2014-Nov-18 22:32N 54°32' E 018°33'0 0.0
2014-Nov-18 21:32N 54°32' E 018°33'0 0.0
2014-Nov-18 20:32N 54°32' E 018°33'0 0.0
2014-Nov-18 19:32N 54°32' E 018°33'0 0.0
2014-Nov-18 18:32N 54°32' E 018°33'0 0.0
2014-Nov-18 17:32N 54°32' E 018°33'0 0.0
2014-Nov-18 16:32N 54°32' E 018°33'0 0.0
2014-Nov-18 15:32N 54°32' E 018°33'0 0.0
2014-Nov-18 14:32N 54°32' E 018°33'0 0.0
2014-Nov-18 13:32N 54°32' E 018°33'0 0.0
2014-Nov-18 12:32N 54°32' E 018°33'0 0.0
2014-Nov-18 11:32N 54°32' E 018°33'3 2.9
2014-Nov-18 10:32N 54°29' E 018°33'3 2.9
2014-Nov-18 09:32N 54°32' E 018°33'0 0.0
2014-Nov-18 08:32N 54°32' E 018°33'0 0.0
2014-Nov-18 07:32N 54°32' E 018°33'0 0.0
2014-Nov-18 06:32N 54°32' E 018°33'0 0.0
2014-Nov-18 05:32N 54°32' E 018°33'0 0.0
2014-Nov-18 04:32N 54°32' E 018°33'0 0.0
2014-Nov-18 03:32N 54°32' E 018°33'0 0.0
2014-Nov-18 02:32N 54°32' E 018°33'0 0.0
2014-Nov-18 01:32N 54°32' E 018°33'0 0.0
2014-Nov-18 00:32N 54°32' E 018°33'0 0.0
2014-Nov-17 23:32N 54°32' E 018°33'0 0.0
2014-Nov-17 22:32N 54°32' E 018°33'0 0.0
2014-Nov-17 21:31N 54°32' E 018°33'0 0.0
2014-Nov-17 20:31N 54°32' E 018°33'0 0.0
2014-Nov-17 19:31N 54°32' E 018°33'0 0.0
2014-Nov-17 18:31N 54°32' E 018°33'0 0.0
2014-Nov-17 17:31N 54°32' E 018°33'0 0.0
2014-Nov-17 16:31N 54°32' E 018°33'0 0.0
2014-Nov-17 15:31N 54°32' E 018°33'1 0.9
2014-Nov-17 14:31N 54°31' E 018°33'1 0.9
2014-Nov-17 13:31N 54°32' E 018°33'0 0.0
2014-Nov-17 12:31N 54°32' E 018°33'0 0.0
2014-Nov-17 11:31N 54°32' E 018°33'0 0.0
2014-Nov-17 10:31N 54°32' E 018°33'0 0.0
2014-Nov-17 09:31N 54°32' E 018°33'0 0.0
2014-Nov-17 08:31N 54°32' E 018°33'0 0.0
2014-Nov-17 07:31N 54°32' E 018°33'0 0.0
2014-Nov-17 06:31N 54°32' E 018°33'0 0.0
2014-Nov-17 05:31N 54°32' E 018°33'0 0.0
2014-Nov-17 04:31N 54°32' E 018°33'0 0.0
2014-Nov-17 03:31N 54°32' E 018°33'0 0.0
2014-Nov-17 02:31N 54°32' E 018°33'0 0.0
2014-Nov-17 01:31N 54°32' E 018°33'0 0.0
2014-Nov-17 00:28N 54°32' E 018°33'  

Dump ship's entire track history